createdAt,value
2022-10-29T00:00:06.278Z,21.08
2022-10-29T00:02:38.748Z,21.02
2022-10-29T00:05:09.913Z,20.98
2022-10-29T00:07:42.832Z,20.74
2022-10-29T00:10:13.263Z,20.55
2022-10-29T00:12:43.400Z,20.42
2022-10-29T00:15:14.769Z,20.29
2022-10-29T00:17:44.985Z,20.25
2022-10-29T00:20:15.429Z,20.17
2022-10-29T00:22:48.243Z,20.12
2022-10-29T00:25:18.546Z,20.13
2022-10-29T00:27:48.736Z,20.14
2022-10-29T00:30:19.599Z,20.10
2022-10-29T00:32:49.939Z,20.18
2022-10-29T00:35:20.400Z,20.19
2022-10-29T00:37:53.520Z,20.17
2022-10-29T00:40:24.039Z,20.07
2022-10-29T00:42:54.226Z,20.00
2022-10-29T00:45:24.477Z,19.94
2022-10-29T00:47:56.723Z,19.80
2022-10-29T00:50:28.155Z,19.88
2022-10-29T00:53:02.209Z,19.91
2022-10-29T00:55:32.627Z,19.97
2022-10-29T00:58:02.803Z,20.14
2022-10-29T01:00:33.066Z,20.27
2022-10-29T01:03:03.373Z,20.31
2022-10-29T01:05:34.750Z,20.31
2022-10-29T01:08:08.576Z,20.30
2022-10-29T01:10:53.210Z,20.34
2022-10-29T01:13:40.001Z,20.39
2022-10-29T01:16:22.335Z,20.34
2022-10-29T01:19:06.128Z,20.32
2022-10-29T01:21:45.481Z,20.44
2022-10-29T01:25:02.952Z,20.43
2022-10-29T01:28:02.612Z,20.33
2022-10-29T01:31:27.148Z,20.24
2022-10-29T01:34:10.425Z,20.12
2022-10-29T01:36:47.247Z,20.17
2022-10-29T01:39:25.953Z,20.08
2022-10-29T01:42:04.280Z,20.02
2022-10-29T01:44:40.806Z,19.92
2022-10-29T01:47:17.925Z,19.94
2022-10-29T01:49:56.180Z,19.98
2022-10-29T01:52:29.181Z,20.02
2022-10-29T01:54:59.284Z,20.11
2022-10-29T01:57:33.980Z,20.14
2022-10-29T02:00:10.227Z,20.19
2022-10-29T02:03:03.863Z,20.30
2022-10-29T02:05:40.172Z,20.24
2022-10-29T02:08:24.065Z,20.26
2022-10-29T02:10:59.799Z,20.31
2022-10-29T02:13:37.890Z,20.37
2022-10-29T02:16:11.449Z,20.37
2022-10-29T02:18:46.791Z,20.35
2022-10-29T02:21:22.155Z,20.34
2022-10-29T02:23:52.463Z,20.31
2022-10-29T02:26:22.698Z,20.33
2022-10-29T02:28:52.834Z,20.37
2022-10-29T02:31:22.950Z,20.39
2022-10-29T02:33:53.127Z,20.29
2022-10-29T02:36:25.845Z,20.10
2022-10-29T02:38:56.058Z,19.99
2022-10-29T02:41:26.209Z,19.87
2022-10-29T02:43:56.301Z,19.68
2022-10-29T02:46:27.282Z,19.48
2022-10-29T02:48:57.351Z,19.34
2022-10-29T02:51:30.077Z,19.27
2022-10-29T02:54:00.246Z,19.19
2022-10-29T02:56:30.402Z,19.16
2022-10-29T02:59:00.795Z,19.20
2022-10-29T03:01:31.271Z,19.17
2022-10-29T03:04:01.644Z,19.07
2022-10-29T03:06:34.346Z,19.06
2022-10-29T03:09:04.581Z,19.01
2022-10-29T03:11:34.698Z,18.98
2022-10-29T03:14:04.870Z,18.95
2022-10-29T03:16:34.959Z,18.90
2022-10-29T03:19:05.528Z,18.78
2022-10-29T03:21:38.226Z,18.73
2022-10-29T03:24:09.472Z,18.68
2022-10-29T03:26:39.592Z,18.61
2022-10-29T03:29:09.792Z,18.56
2022-10-29T03:31:39.960Z,18.63
2022-10-29T03:34:10.110Z,18.70
2022-10-29T03:36:42.822Z,18.66
2022-10-29T03:39:13.003Z,18.61
2022-10-29T03:41:43.693Z,18.71
2022-10-29T03:44:13.792Z,18.83
2022-10-29T03:46:43.953Z,18.82
2022-10-29T03:49:14.038Z,18.78
2022-10-29T03:51:47.043Z,18.84
2022-10-29T03:54:17.105Z,18.80
2022-10-29T03:56:47.216Z,18.72
2022-10-29T03:59:17.698Z,18.65
2022-10-29T04:01:47.950Z,18.61
2022-10-29T04:04:18.120Z,18.64
2022-10-29T04:06:50.950Z,18.48
2022-10-29T04:09:21.088Z,18.44
2022-10-29T04:11:51.255Z,18.50
2022-10-29T04:14:21.346Z,18.41
2022-10-29T04:16:51.631Z,18.39
2022-10-29T04:19:21.740Z,18.31
2022-10-29T04:28:41.971Z,17.64
2022-10-29T04:30:25.289Z,17.49
2022-10-29T04:33:00.050Z,17.37
2022-10-29T04:35:32.097Z,17.34
2022-10-29T04:38:11.296Z,17.38
2022-10-29T04:40:41.359Z,17.37
2022-10-29T04:43:11.353Z,17.35
2022-10-29T04:48:32.602Z,17.39
2022-10-29T04:51:02.700Z,17.35
2022-10-29T04:53:35.469Z,17.41
2022-10-29T04:56:06.265Z,17.37
2022-10-29T04:58:36.122Z,17.33
2022-10-29T05:01:07.275Z,17.38
2022-10-29T05:03:37.802Z,17.47
2022-10-29T05:06:09.841Z,17.43
2022-10-29T05:08:42.630Z,17.36
2022-10-29T05:11:13.413Z,17.27
2022-10-29T05:13:45.284Z,17.26
2022-10-29T05:16:15.412Z,17.13
2022-10-29T05:18:45.548Z,17.07
2022-10-29T05:21:15.656Z,17.06
2022-10-29T05:23:48.263Z,17.03
2022-10-29T05:26:18.350Z,17.02
2022-10-29T05:28:48.433Z,17.03
2022-10-29T05:31:18.578Z,17.02
2022-10-29T05:33:51.102Z,16.97
2022-10-29T05:36:23.949Z,16.94
2022-10-29T05:38:56.581Z,16.88
2022-10-29T05:41:26.752Z,16.91
2022-10-29T05:43:56.900Z,16.90
2022-10-29T05:46:27.103Z,16.86
2022-10-29T05:48:57.257Z,16.85
2022-10-29T05:51:27.367Z,16.82
2022-10-29T05:54:00.051Z,16.86
2022-10-29T05:56:30.204Z,16.85
2022-10-29T05:59:00.297Z,16.84
2022-10-29T06:01:30.560Z,16.82
2022-10-29T06:04:01.442Z,16.81
2022-10-29T06:06:34.101Z,16.75
2022-10-29T06:09:07.136Z,16.73
2022-10-29T06:11:37.192Z,16.69
2022-10-29T06:14:07.310Z,16.70
2022-10-29T06:16:37.377Z,16.68
2022-10-29T06:19:07.680Z,16.68
2022-10-29T06:21:38.306Z,16.74
2022-10-29T06:24:13.665Z,16.84
2022-10-29T06:26:44.037Z,16.89
2022-10-29T06:29:14.153Z,16.90
2022-10-29T06:31:44.211Z,16.84
2022-10-29T06:34:14.880Z,16.84
2022-10-29T06:36:44.885Z,16.83
2022-10-29T06:39:17.637Z,16.96
2022-10-29T06:41:47.741Z,17.08
2022-10-29T06:44:22.162Z,17.14
2022-10-29T06:46:52.216Z,17.21
2022-10-29T06:49:23.048Z,17.30
2022-10-29T06:51:52.935Z,17.29
2022-10-29T06:54:25.718Z,17.36
2022-10-29T06:56:55.976Z,17.51
2022-10-29T06:59:26.367Z,17.65
2022-10-29T07:01:56.990Z,17.80
2022-10-29T07:04:27.581Z,17.97
2022-10-29T07:06:57.626Z,18.14
2022-10-29T07:09:30.268Z,18.32
2022-10-29T07:12:00.383Z,18.61
2022-10-29T07:14:30.492Z,18.83
2022-10-29T07:17:00.676Z,19.11
2022-10-29T07:19:30.878Z,19.33
2022-10-29T07:22:00.954Z,19.72
2022-10-29T07:24:33.626Z,20.07
2022-10-29T07:27:06.881Z,20.48
2022-10-29T07:29:37.002Z,20.80
2022-10-29T07:32:07.551Z,20.79
2022-10-29T07:34:37.617Z,20.87
2022-10-29T07:37:07.906Z,21.01
2022-10-29T07:39:40.564Z,21.14
2022-10-29T07:42:10.679Z,21.42
2022-10-29T07:44:40.794Z,21.62
2022-10-29T07:47:10.990Z,21.89
2022-10-29T07:49:41.090Z,21.86
2022-10-29T07:52:11.985Z,21.89
2022-10-29T07:54:44.728Z,22.26
2022-10-29T07:57:15.996Z,22.03
2022-10-29T07:59:47.115Z,22.19
2022-10-29T08:02:17.243Z,22.47
2022-10-29T08:04:47.421Z,22.48
2022-10-29T08:07:17.543Z,22.37
2022-10-29T08:09:50.246Z,22.59
2022-10-29T08:12:20.379Z,22.54
2022-10-29T08:14:50.564Z,22.38
2022-10-29T08:17:20.861Z,22.26
2022-10-29T08:19:50.962Z,22.24
2022-10-29T08:22:21.070Z,22.09
2022-10-29T08:24:53.808Z,22.13
2022-10-29T08:27:23.856Z,22.21
2022-10-29T08:29:53.943Z,22.36
2022-10-29T08:32:24.187Z,22.56
2022-10-29T08:34:54.292Z,22.99
2022-10-29T08:37:24.537Z,23.25
2022-10-29T08:39:57.284Z,23.48
2022-10-29T08:42:45.488Z,23.73
2022-10-29T08:45:26.743Z,24.06
2022-10-29T08:48:31.828Z,24.20
2022-10-29T08:51:08.642Z,24.17
2022-10-29T08:53:45.370Z,24.18
2022-10-29T08:56:25.899Z,24.58
2022-10-29T08:59:05.432Z,25.29
2022-10-29T09:01:36.288Z,25.84
2022-10-29T09:04:19.896Z,26.35
2022-10-29T09:07:15.389Z,26.55
2022-10-29T09:09:52.514Z,27.10
2022-10-29T09:12:53.553Z,27.34
2022-10-29T09:15:47.577Z,26.94
2022-10-29T09:18:35.630Z,27.01
2022-10-29T09:21:22.375Z,26.85
2022-10-29T09:24:08.995Z,27.21
2022-10-29T09:26:52.956Z,26.70
2022-10-29T09:29:42.632Z,25.98
2022-10-29T09:32:19.144Z,25.80
2022-10-29T09:34:54.489Z,25.67
2022-10-29T09:37:34.173Z,25.56
2022-10-29T09:40:08.013Z,25.23
2022-10-29T09:42:42.092Z,25.47
2022-10-29T09:45:20.421Z,26.04
2022-10-29T09:48:02.147Z,26.49
2022-10-29T09:50:40.954Z,27.08
2022-10-29T09:53:11.698Z,27.19
2022-10-29T09:55:44.437Z,27.71
2022-10-29T09:58:22.519Z,28.11
2022-10-29T10:00:57.182Z,28.19
2022-10-29T10:03:33.521Z,28.41
2022-10-29T10:06:06.231Z,28.91
2022-10-29T10:08:38.872Z,29.11
2022-10-29T10:11:10.427Z,29.39
2022-10-29T10:13:56.378Z,29.69
2022-10-29T10:16:33.179Z,29.51
2022-10-29T10:19:03.612Z,29.44
2022-10-29T10:21:35.699Z,28.89
2022-10-29T10:24:06.844Z,28.37
2022-10-29T10:26:43.147Z,28.57
2022-10-29T10:29:18.838Z,28.57
2022-10-29T10:31:53.308Z,28.74
2022-10-29T10:34:25.538Z,29.16
2022-10-29T10:36:58.793Z,29.92
2022-10-29T10:39:32.978Z,30.12
2022-10-29T10:42:07.294Z,30.34
2022-10-29T10:44:38.440Z,31.02
2022-10-29T10:47:11.413Z,31.59
2022-10-29T10:49:42.418Z,32.01
2022-10-29T10:52:20.699Z,32.26
2022-10-29T10:55:00.630Z,32.19
2022-10-29T10:57:36.686Z,32.53
2022-10-29T11:00:12.517Z,33.23
2022-10-29T11:02:52.940Z,33.00
2022-10-29T11:05:25.963Z,32.70
2022-10-29T11:08:03.441Z,32.74
2022-10-29T11:10:40.149Z,32.75
2022-10-29T11:13:18.012Z,32.63
2022-10-29T11:15:57.695Z,32.62
2022-10-29T11:18:33.741Z,33.37
2022-10-29T11:21:15.067Z,33.21
2022-10-29T11:23:57.094Z,33.16
2022-10-29T11:26:34.744Z,32.26
2022-10-29T11:29:17.473Z,32.68
2022-10-29T11:31:56.875Z,33.51
2022-10-29T11:34:51.785Z,33.71
2022-10-29T11:37:30.653Z,34.86
2022-10-29T11:40:07.475Z,34.44
2022-10-29T11:42:39.452Z,35.29
2022-10-29T11:45:18.255Z,35.37
2022-10-29T11:48:11.201Z,34.90
2022-10-29T11:50:55.980Z,32.55
2022-10-29T11:53:56.555Z,31.76
2022-10-29T11:56:41.554Z,31.02
2022-10-29T11:59:25.190Z,30.92
2022-10-29T12:02:06.656Z,30.29
2022-10-29T12:04:41.137Z,30.11
2022-10-29T12:07:30.234Z,30.21
2022-10-29T12:10:18.239Z,29.42
2022-10-29T12:12:58.580Z,29.34
2022-10-29T12:15:34.400Z,30.49
2022-10-29T12:18:16.376Z,32.34
2022-10-29T12:20:55.318Z,33.52
2022-10-29T12:23:40.052Z,33.65
2022-10-29T12:26:18.719Z,34.45
2022-10-29T12:28:58.853Z,35.16
2022-10-29T12:31:37.306Z,35.38
2022-10-29T12:34:14.388Z,35.62
2022-10-29T12:36:54.986Z,35.62
2022-10-29T12:39:35.631Z,35.80
2022-10-29T12:42:10.591Z,35.43
2022-10-29T12:44:48.824Z,33.97
2022-10-29T12:47:25.887Z,32.81
2022-10-29T12:50:10.120Z,31.76
2022-10-29T12:52:48.431Z,30.79
2022-10-29T12:55:22.255Z,30.04
2022-10-29T12:57:52.373Z,29.19
2022-10-29T13:00:50.694Z,28.26
2022-10-29T13:04:02.803Z,27.38
2022-10-29T13:06:49.648Z,27.04
2022-10-29T13:09:22.605Z,26.46
2022-10-29T13:11:58.617Z,26.19
2022-10-29T13:14:40.797Z,26.02
2022-10-29T13:17:29.707Z,25.83
2022-10-29T13:20:02.702Z,25.68
2022-10-29T13:22:55.889Z,25.53
2022-10-29T13:25:51.487Z,25.53
2022-10-29T13:28:55.213Z,25.60
2022-10-29T13:31:51.522Z,25.73
2022-10-29T13:34:56.336Z,25.72
2022-10-29T13:37:55.511Z,25.87
2022-10-29T13:41:05.409Z,26.14
2022-10-29T13:43:36.465Z,26.34
2022-10-29T13:46:32.363Z,26.16
2022-10-29T13:49:07.716Z,26.29
2022-10-29T13:51:47.401Z,26.24
2022-10-29T13:54:28.560Z,26.28
2022-10-29T13:57:03.856Z,26.05
2022-10-29T13:59:43.682Z,25.90
2022-10-29T14:02:36.936Z,25.93
2022-10-29T14:05:18.443Z,25.74
2022-10-29T14:07:57.026Z,25.65
2022-10-29T14:10:32.486Z,25.69
2022-10-29T14:13:14.032Z,25.67
2022-10-29T14:16:04.049Z,25.53
2022-10-29T14:18:40.840Z,25.42
2022-10-29T14:21:17.875Z,25.22
2022-10-29T14:24:02.052Z,25.09
2022-10-29T14:26:35.569Z,25.13
2022-10-29T14:29:17.810Z,25.24
2022-10-29T14:31:48.463Z,25.17
2022-10-29T14:34:30.814Z,25.16
2022-10-29T14:37:05.916Z,25.33
2022-10-29T14:39:56.891Z,25.40
2022-10-29T14:42:34.140Z,25.34
2022-10-29T14:45:08.044Z,25.21
2022-10-29T14:47:40.568Z,25.21
2022-10-29T14:50:21.761Z,24.96
2022-10-29T14:52:55.819Z,24.76
2022-10-29T14:55:29.083Z,24.73
2022-10-29T14:58:07.172Z,24.70
2022-10-29T15:00:38.976Z,24.53
2022-10-29T15:03:10.513Z,24.42
2022-10-29T15:05:43.522Z,24.31
2022-10-29T15:08:19.444Z,24.15
2022-10-29T15:10:51.981Z,24.01
2022-10-29T15:13:33.555Z,23.89
2022-10-29T15:16:09.642Z,23.87
2022-10-29T15:18:41.099Z,23.81
2022-10-29T15:21:13.833Z,23.65
2022-10-29T15:23:47.900Z,23.59
2022-10-29T15:26:21.676Z,23.56
2022-10-29T15:28:55.192Z,23.44
2022-10-29T15:31:32.382Z,23.34
2022-10-29T15:34:10.789Z,23.30
2022-10-29T15:36:56.263Z,23.24
2022-10-29T15:39:30.170Z,23.19
2022-10-29T15:42:03.148Z,23.17
2022-10-29T15:44:40.788Z,23.09
2022-10-29T15:47:29.475Z,23.09
2022-10-29T15:49:59.733Z,23.12
2022-10-29T15:52:37.089Z,23.09
2022-10-29T15:55:12.630Z,23.08
2022-10-29T15:57:43.054Z,23.02
2022-10-29T16:00:16.318Z,23.00
2022-10-29T16:02:46.586Z,23.02
2022-10-29T16:05:18.326Z,23.04
2022-10-29T16:07:51.362Z,23.03
2022-10-29T16:10:24.111Z,23.04
2022-10-29T16:12:54.597Z,23.09
2022-10-29T16:15:25.060Z,22.99
2022-10-29T16:17:55.633Z,22.92
2022-10-29T16:20:25.941Z,22.91
2022-10-29T16:22:58.697Z,22.92
2022-10-29T16:25:31.476Z,22.92
2022-10-29T16:28:01.727Z,22.91
2022-10-29T16:30:31.926Z,22.92
2022-10-29T16:33:03.990Z,22.92
2022-10-29T16:35:34.295Z,22.89
2022-10-29T16:38:07.110Z,22.79
2022-10-29T16:40:37.312Z,22.76
2022-10-29T16:43:07.620Z,22.75
2022-10-29T16:45:38.129Z,22.70
2022-10-29T16:48:08.517Z,22.60
2022-10-29T16:50:38.744Z,22.53
2022-10-29T16:53:13.175Z,22.49
2022-10-29T16:55:44.234Z,22.40
2022-10-29T16:58:16.439Z,22.34
2022-10-29T17:00:47.301Z,22.20
2022-10-29T17:03:19.892Z,22.11
2022-10-29T17:05:50.148Z,22.11
2022-10-29T17:08:23.074Z,22.14
2022-10-29T17:10:53.208Z,22.07
2022-10-29T17:13:23.410Z,22.04
2022-10-29T17:15:53.522Z,22.04
2022-10-29T17:18:24.768Z,22.06
2022-10-29T17:21:00.122Z,21.94
2022-10-29T17:23:33.380Z,21.97
2022-10-29T17:26:03.998Z,21.95
2022-10-29T17:28:35.462Z,21.94
2022-10-29T17:31:08.299Z,21.91
2022-10-29T17:33:39.288Z,21.89
2022-10-29T17:36:14.463Z,21.89
2022-10-29T17:38:47.629Z,21.95
2022-10-29T17:41:17.741Z,22.03
2022-10-29T17:43:47.839Z,22.03
2022-10-29T17:46:18.223Z,21.96
2022-10-29T17:48:48.313Z,21.97
2022-10-29T17:51:18.390Z,21.97
2022-10-29T17:53:51.492Z,22.03
2022-10-29T17:56:21.600Z,22.01
2022-10-29T17:58:51.968Z,21.94
2022-10-29T18:01:22.339Z,21.96
2022-10-29T18:03:52.516Z,21.98
2022-10-29T18:06:22.650Z,21.96
2022-10-29T18:08:55.411Z,21.95
2022-10-29T18:11:27.789Z,21.94
2022-10-29T18:14:00.246Z,21.92
2022-10-29T18:16:33.205Z,22.00
2022-10-29T18:19:03.760Z,21.81
2022-10-29T18:21:34.625Z,21.72
2022-10-29T18:24:08.442Z,21.70
2022-10-29T18:26:39.786Z,21.64
2022-10-29T18:29:13.338Z,21.53
2022-10-29T18:31:45.191Z,21.26
2022-10-29T18:34:17.399Z,21.17
2022-10-29T18:36:47.700Z,20.98
2022-10-29T18:39:20.541Z,20.71
2022-10-29T18:41:50.752Z,20.60
2022-10-29T18:44:20.898Z,20.58
2022-10-29T18:46:51.155Z,20.54
2022-10-29T18:49:21.601Z,20.46
2022-10-29T18:51:51.732Z,20.33
2022-10-29T18:54:24.584Z,20.30
2022-10-29T18:56:55.066Z,20.24
2022-10-29T18:59:25.294Z,20.19
2022-10-29T19:01:55.522Z,20.08
2022-10-29T19:04:25.741Z,20.02
2022-10-29T19:06:57.384Z,20.13
2022-10-29T19:09:30.257Z,20.13
2022-10-29T19:12:00.447Z,20.19
2022-10-29T19:14:33.576Z,20.27
2022-10-29T19:17:03.795Z,20.37
2022-10-29T19:19:33.983Z,20.40
2022-10-29T19:22:04.073Z,20.50
2022-10-29T19:24:36.884Z,20.50
2022-10-29T19:27:07.049Z,20.55
2022-10-29T19:29:37.199Z,20.65
2022-10-29T19:32:07.813Z,20.73
2022-10-29T19:37:09.145Z,20.80
2022-10-29T19:39:41.895Z,20.74
2022-10-29T19:42:11.938Z,20.66
2022-10-29T19:44:42.068Z,20.68
2022-10-29T19:47:12.195Z,20.65
2022-10-29T19:49:42.454Z,20.55
2022-10-29T19:52:12.598Z,20.53
2022-10-29T19:54:45.330Z,20.54
2022-10-29T19:57:15.452Z,20.56
2022-10-29T19:59:45.540Z,20.54
2022-10-29T20:02:15.915Z,20.53
2022-10-29T20:04:46.108Z,20.46
2022-10-29T20:07:16.267Z,20.19
2022-10-29T20:09:51.195Z,20.03
2022-10-29T20:12:21.331Z,20.00
2022-10-29T20:14:51.517Z,19.91
2022-10-29T20:17:21.766Z,19.75
2022-10-29T20:19:52.304Z,19.53
2022-10-29T20:22:22.411Z,19.45
2022-10-29T20:24:55.131Z,19.42
2022-10-29T20:27:26.016Z,19.42
2022-10-29T20:29:56.174Z,19.47
2022-10-29T20:32:26.360Z,19.54
2022-10-29T20:34:56.555Z,19.52
2022-10-29T20:37:26.776Z,19.50
2022-10-29T20:39:59.877Z,19.47
2022-10-29T20:42:30.014Z,19.41
2022-10-29T20:45:00.194Z,19.37
2022-10-29T20:47:30.313Z,19.32
2022-10-29T20:50:00.483Z,19.31
2022-10-29T20:52:30.659Z,19.26
2022-10-29T20:55:03.528Z,19.18
2022-10-29T20:57:34.392Z,19.14
2022-10-29T21:00:04.320Z,19.05
2022-10-29T21:02:34.580Z,18.98
2022-10-29T21:05:04.804Z,18.91
2022-10-29T21:07:35.035Z,18.85
2022-10-29T21:10:09.247Z,18.77
2022-10-29T21:12:39.472Z,18.76
2022-10-29T21:15:11.671Z,18.82
2022-10-29T21:17:41.782Z,18.83
2022-10-29T21:20:13.311Z,18.78
2022-10-29T21:22:43.506Z,18.84
2022-10-29T21:25:16.332Z,18.81
2022-10-29T21:27:46.404Z,18.77
2022-10-29T21:30:17.197Z,18.85
2022-10-29T21:32:47.046Z,18.94
2022-10-29T21:35:17.519Z,19.05
2022-10-29T21:37:47.718Z,19.13
2022-10-29T21:40:20.479Z,19.11
2022-10-29T21:42:50.582Z,19.01
2022-10-29T21:45:20.781Z,18.93
2022-10-29T21:47:51.811Z,18.80
2022-10-29T21:50:21.888Z,18.68
2022-10-29T21:52:52.049Z,18.64
2022-10-29T21:55:24.826Z,18.64
2022-10-29T21:57:55.427Z,18.64
2022-10-29T22:00:25.651Z,18.64
2022-10-29T22:03:00.145Z,18.70
2022-10-29T22:05:34.028Z,18.87
2022-10-29T22:08:04.563Z,19.01
2022-10-29T22:10:37.489Z,19.13
2022-10-29T22:13:10.396Z,19.09
2022-10-29T22:15:43.698Z,18.99
2022-10-29T22:18:14.163Z,18.88
2022-10-29T22:20:44.304Z,18.84
2022-10-29T22:23:17.417Z,18.66
2022-10-29T22:25:55.270Z,18.53
2022-10-29T22:28:25.447Z,18.57
2022-10-29T22:31:01.718Z,18.63
2022-10-29T22:33:32.850Z,18.60
2022-10-29T22:36:16.275Z,18.53
2022-10-29T22:38:46.790Z,18.43
2022-10-29T22:41:20.676Z,18.31
2022-10-29T22:43:51.054Z,18.28
2022-10-29T22:46:22.650Z,18.35
2022-10-29T22:48:52.769Z,18.41
2022-10-29T22:51:25.436Z,18.40
2022-10-29T22:53:56.660Z,18.42
2022-10-29T22:56:31.877Z,18.49
2022-10-29T22:59:02.940Z,18.49
2022-10-29T23:01:40.280Z,18.50
2022-10-29T23:04:15.795Z,18.53
2022-10-29T23:06:47.867Z,18.58
2022-10-29T23:09:18.035Z,18.63
2022-10-29T23:11:50.815Z,18.59
2022-10-29T23:14:20.905Z,18.59
2022-10-29T23:16:50.936Z,18.57
2022-10-29T23:19:21.655Z,18.72
2022-10-29T23:21:51.935Z,18.74
2022-10-29T23:24:22.237Z,18.71
2022-10-29T23:26:54.998Z,18.70
2022-10-29T23:29:25.189Z,18.63
2022-10-29T23:31:55.208Z,18.58
2022-10-29T23:34:25.293Z,18.49
2022-10-29T23:36:55.483Z,18.46
2022-10-29T23:39:25.689Z,18.40
2022-10-29T23:41:58.431Z,18.35
2022-10-29T23:44:28.578Z,18.34
2022-10-29T23:46:58.701Z,18.35
2022-10-29T23:49:28.806Z,18.36
2022-10-29T23:51:59.066Z,18.28
2022-10-29T23:54:29.178Z,18.21
2022-10-29T23:57:01.850Z,18.19
2022-10-29T23:59:32.018Z,18.16
